createdAt,value
2023-04-23T00:02:16.835Z,97774.03
2023-04-23T00:04:50.808Z,97781.09
2023-04-23T00:07:20.062Z,97771.00
2023-04-23T00:09:47.043Z,97766.56
2023-04-23T00:12:14.454Z,97769.25
2023-04-23T00:14:41.673Z,97759.59
2023-04-23T00:17:08.879Z,97766.47
2023-04-23T00:19:35.966Z,97762.97
2023-04-23T00:22:03.264Z,97764.91
2023-04-23T00:24:32.112Z,97762.97
2023-04-23T00:26:58.993Z,97765.44
2023-04-23T00:29:25.857Z,97762.03
2023-04-23T00:31:52.773Z,97753.34
2023-04-23T00:34:19.680Z,97756.75
2023-04-23T00:36:46.554Z,97752.78
2023-04-23T00:39:13.495Z,97759.78
2023-04-23T00:41:41.814Z,97759.47
2023-04-23T00:44:13.284Z,97759.69
2023-04-23T00:46:40.252Z,97759.44
2023-04-23T00:49:07.156Z,97755.13
2023-04-23T00:51:34.032Z,97755.22
2023-04-23T00:54:00.912Z,97747.50
2023-04-23T00:56:28.538Z,97746.34
2023-04-23T00:58:56.212Z,97751.03
2023-04-23T01:01:23.739Z,97745.81
2023-04-23T01:03:53.350Z,97743.56
2023-04-23T01:06:20.542Z,97738.50
2023-04-23T01:08:47.994Z,97738.47
2023-04-23T01:11:15.714Z,97741.94
2023-04-23T01:13:43.718Z,97750.97
2023-04-23T01:16:11.149Z,97743.97
2023-04-23T01:18:38.107Z,97740.03
2023-04-23T01:21:05.684Z,97742.75
2023-04-23T01:23:32.601Z,97741.28
2023-04-23T01:25:59.649Z,97741.47
2023-04-23T01:28:26.633Z,97741.94
2023-04-23T01:30:53.851Z,97735.81
2023-04-23T01:33:21.064Z,97738.97
2023-04-23T01:35:49.516Z,97736.81
2023-04-23T01:38:17.656Z,97733.31
2023-04-23T01:40:44.521Z,97738.34
2023-04-23T01:43:11.480Z,97731.06
2023-04-23T01:45:38.419Z,97726.91
2023-04-23T01:48:05.381Z,97728.88
2023-04-23T01:50:32.224Z,97732.44
2023-04-23T01:52:59.096Z,97733.81
2023-04-23T01:55:26.365Z,97731.25
2023-04-23T01:57:53.283Z,97738.56
2023-04-23T02:00:20.907Z,97737.19
2023-04-23T02:02:48.358Z,97731.59
2023-04-23T02:05:18.783Z,97736.87
2023-04-23T02:07:47.405Z,97731.84
2023-04-23T02:10:14.611Z,97735.59
2023-04-23T02:12:41.904Z,97735.03
2023-04-23T02:15:10.007Z,97737.81
2023-04-23T02:17:37.112Z,97733.88
2023-04-23T02:20:04.495Z,97728.91
2023-04-23T02:22:31.748Z,97733.00
2023-04-23T02:25:00.072Z,97734.19
2023-04-23T02:27:27.451Z,97732.22
2023-04-23T02:29:54.566Z,97731.53
2023-04-23T02:32:21.442Z,97732.63
2023-04-23T02:34:48.335Z,97731.59
2023-04-23T02:37:15.197Z,97730.78
2023-04-23T02:39:42.136Z,97718.31
2023-04-23T02:42:09.074Z,97720.50
2023-04-23T02:44:36.253Z,97724.75
2023-04-23T02:47:03.313Z,97719.28
2023-04-23T02:49:30.761Z,97714.37
2023-04-23T02:51:57.676Z,97716.91
2023-04-23T02:54:24.531Z,97716.88
2023-04-23T02:56:51.675Z,97716.44
2023-04-23T02:59:18.543Z,97718.47
2023-04-23T03:01:45.416Z,97719.63
2023-04-23T03:04:12.746Z,97717.81
2023-04-23T03:06:39.688Z,97717.56
2023-04-23T03:09:06.805Z,97714.47
2023-04-23T03:11:34.112Z,97712.06
2023-04-23T03:14:01.232Z,97712.59
2023-04-23T03:16:29.432Z,97716.50
2023-04-23T03:18:56.498Z,97710.66
2023-04-23T03:21:23.359Z,97708.75
2023-04-23T03:23:50.232Z,97702.44
2023-04-23T03:26:17.097Z,97711.16
2023-04-23T03:28:43.961Z,97706.44
2023-04-23T03:31:11.044Z,97706.97
2023-04-23T03:33:37.993Z,97707.44
2023-04-23T03:36:05.790Z,97701.47
2023-04-23T03:38:32.694Z,97700.44
2023-04-23T03:40:59.611Z,97698.94
2023-04-23T03:43:26.519Z,97700.63
2023-04-23T03:45:53.436Z,97693.38
2023-04-23T03:48:21.758Z,97705.72
2023-04-23T03:50:48.743Z,97704.03
2023-04-23T03:53:17.803Z,97696.88
2023-04-23T03:55:44.946Z,97700.75
2023-04-23T03:58:12.019Z,97691.75
2023-04-23T04:00:38.881Z,97701.91
2023-04-23T04:03:05.972Z,97702.09
2023-04-23T04:05:33.052Z,97699.47
2023-04-23T04:07:59.925Z,97707.16
2023-04-23T04:10:26.968Z,97699.69
2023-04-23T04:12:55.372Z,97705.16
2023-04-23T04:15:22.369Z,97701.25
2023-04-23T04:17:49.328Z,97708.84
2023-04-23T04:20:16.223Z,97710.50
2023-04-23T04:22:43.108Z,97710.94
2023-04-23T04:25:10.134Z,97707.56
2023-04-23T04:27:37.803Z,97718.44
2023-04-23T04:30:05.746Z,97718.25
2023-04-23T04:32:33.023Z,97712.56
2023-04-23T04:34:59.951Z,97719.84
2023-04-23T04:37:28.196Z,97721.87
2023-04-23T04:39:55.375Z,97715.06
2023-04-23T04:42:22.273Z,97717.28
2023-04-23T04:44:49.148Z,97724.63
2023-04-23T04:47:16.529Z,97722.19
2023-04-23T04:49:43.416Z,97721.69
2023-04-23T04:52:10.492Z,97717.81
2023-04-23T04:54:37.432Z,97733.00
2023-04-23T04:57:04.371Z,97728.69
2023-04-23T04:59:31.321Z,97728.84
2023-04-23T05:01:58.238Z,97733.03
2023-04-23T05:04:25.302Z,97736.84
2023-04-23T05:06:52.261Z,97730.88
2023-04-23T05:09:19.105Z,97741.69
2023-04-23T05:11:45.988Z,97738.13
2023-04-23T05:14:12.901Z,97737.25
2023-04-23T05:16:39.751Z,97747.06
2023-04-23T05:19:06.684Z,97740.28
2023-04-23T05:21:33.615Z,97744.37
2023-04-23T05:24:00.522Z,97736.63
2023-04-23T05:26:27.426Z,97749.75
2023-04-23T05:28:54.353Z,97740.09
2023-04-23T05:31:21.423Z,97743.09
2023-04-23T05:33:50.443Z,97743.47
2023-04-23T05:36:18.262Z,97741.12
2023-04-23T05:38:45.224Z,97748.62
2023-04-23T05:41:12.113Z,97749.19
2023-04-23T05:43:39.000Z,97749.91
2023-04-23T05:46:07.681Z,97747.44
2023-04-23T05:48:35.070Z,97751.09
2023-04-23T05:51:02.097Z,97753.03
2023-04-23T05:53:29.159Z,97750.31
2023-04-23T05:55:56.206Z,97746.56
2023-04-23T05:58:23.769Z,97743.84
2023-04-23T06:00:50.677Z,97748.97
2023-04-23T06:03:17.816Z,97746.19
2023-04-23T06:05:44.912Z,97745.34
2023-04-23T06:08:11.840Z,97756.03
2023-04-23T06:10:38.757Z,97754.09
2023-04-23T06:13:06.076Z,97756.31
2023-04-23T06:15:33.007Z,97758.13
2023-04-23T06:17:59.886Z,97763.66
2023-04-23T06:20:26.780Z,97759.06
2023-04-23T06:22:53.754Z,97758.53
2023-04-23T06:25:20.681Z,97759.06
2023-04-23T06:27:47.546Z,97752.00
2023-04-23T06:30:14.500Z,97768.00
2023-04-23T06:32:41.461Z,97757.56
2023-04-23T06:35:08.888Z,97757.22
2023-04-23T06:37:36.031Z,97767.97
2023-04-23T06:40:02.937Z,97772.00
2023-04-23T06:42:29.911Z,97764.69
2023-04-23T06:44:59.635Z,97764.81
2023-04-23T06:47:26.506Z,97763.31
2023-04-23T06:49:53.355Z,97763.25
2023-04-23T06:52:20.240Z,97763.00
2023-04-23T06:54:47.137Z,97765.22
2023-04-23T06:57:13.980Z,97759.44
2023-04-23T06:59:40.888Z,97764.34
2023-04-23T07:02:07.959Z,97766.50
2023-04-23T07:04:34.961Z,97766.53
2023-04-23T07:07:02.249Z,97758.91
2023-04-23T07:09:29.114Z,97763.13
2023-04-23T07:11:56.011Z,97760.94
2023-04-23T07:14:23.075Z,97757.69
2023-04-23T07:16:50.158Z,97756.72
2023-04-23T07:19:17.127Z,97758.81
2023-04-23T07:21:44.033Z,97758.22
2023-04-23T07:24:11.433Z,97754.63
2023-04-23T07:26:38.279Z,97755.91
2023-04-23T07:29:10.805Z,97758.75
2023-04-23T07:31:37.872Z,97753.31
2023-04-23T07:34:04.845Z,97757.91
2023-04-23T07:36:32.180Z,97754.00
2023-04-23T07:38:59.148Z,97750.66
2023-04-23T07:41:26.002Z,97748.53
2023-04-23T07:43:52.929Z,97758.38
2023-04-23T07:46:20.310Z,97753.59
2023-04-23T07:48:47.199Z,97750.19
2023-04-23T07:51:14.096Z,97753.56
2023-04-23T07:53:41.375Z,97748.03
2023-04-23T07:56:08.291Z,97748.19
2023-04-23T07:58:35.647Z,97737.81
2023-04-23T08:01:02.888Z,97748.44
2023-04-23T08:03:30.016Z,97745.87
2023-04-23T08:05:57.665Z,97748.56
2023-04-23T08:08:24.537Z,97750.38
2023-04-23T08:10:51.379Z,97739.66
2023-04-23T08:13:18.279Z,97744.78
2023-04-23T08:15:45.248Z,97735.16
2023-04-23T08:18:13.281Z,97748.47
2023-04-23T08:20:40.150Z,97742.59
2023-04-23T08:23:07.318Z,97735.13
2023-04-23T08:25:34.794Z,97738.09
2023-04-23T08:28:01.817Z,97744.75
2023-04-23T08:30:28.682Z,97744.97
2023-04-23T08:32:55.718Z,97735.75
2023-04-23T08:35:23.627Z,97738.28
2023-04-23T08:37:50.655Z,97743.34
2023-04-23T08:40:17.669Z,97734.66
2023-04-23T08:42:49.728Z,97738.44
2023-04-23T08:45:17.028Z,97740.38
2023-04-23T08:47:44.488Z,97742.25
2023-04-23T08:50:13.449Z,97752.44
2023-04-23T08:52:51.304Z,97746.13
2023-04-23T08:55:19.028Z,97742.47
2023-04-23T08:57:46.808Z,97751.91
2023-04-23T09:00:14.670Z,97742.25
2023-04-23T09:02:43.924Z,97748.69
2023-04-23T09:05:12.889Z,97730.44
2023-04-23T09:07:40.405Z,97732.34
2023-04-23T09:10:08.801Z,97724.25
2023-04-23T09:12:36.795Z,97729.63
2023-04-23T09:15:10.825Z,97724.91
2023-04-23T09:17:44.047Z,97723.06
2023-04-23T09:20:11.821Z,97717.44
2023-04-23T09:22:52.855Z,97731.63
2023-04-23T09:25:24.219Z,97728.53
2023-04-23T09:27:52.358Z,97715.88
2023-04-23T09:30:19.968Z,97732.00
2023-04-23T09:32:47.675Z,97711.12
2023-04-23T09:35:16.449Z,97717.31
2023-04-23T09:37:48.789Z,97715.59
2023-04-23T09:40:17.726Z,97712.41
2023-04-23T09:42:49.806Z,97704.19
2023-04-23T09:45:17.375Z,97702.44
2023-04-23T09:47:58.108Z,97695.00
2023-04-23T09:50:40.885Z,97710.75
2023-04-23T09:53:09.647Z,97703.81
2023-04-23T09:55:39.502Z,97698.50
2023-04-23T09:58:11.376Z,97702.66
2023-04-23T10:00:39.228Z,97692.00
2023-04-23T10:03:13.027Z,97702.78
2023-04-23T10:08:13.464Z,97690.59
2023-04-23T10:10:55.084Z,97689.41
2023-04-23T10:13:28.547Z,97684.94
2023-04-23T10:16:04.488Z,97688.06
2023-04-23T10:18:38.022Z,97677.91
2023-04-23T10:21:05.755Z,97678.75
2023-04-23T10:23:34.436Z,97679.09
2023-04-23T10:26:01.861Z,97671.69
2023-04-23T10:28:32.189Z,97674.28
2023-04-23T10:31:00.274Z,97666.28
2023-04-23T10:33:30.888Z,97678.00
2023-04-23T10:36:02.485Z,97660.63
2023-04-23T10:38:30.495Z,97660.87
2023-04-23T10:40:59.076Z,97673.28
2023-04-23T10:43:26.057Z,97667.59
2023-04-23T10:45:53.993Z,97660.75
2023-04-23T10:48:21.634Z,97660.97
2023-04-23T10:51:09.879Z,97660.28
2023-04-23T10:53:45.986Z,97655.59
2023-04-23T10:56:12.937Z,97653.81
2023-04-23T10:58:53.263Z,97646.03
2023-04-23T11:01:22.246Z,97656.13
2023-04-23T11:03:49.400Z,97648.72
2023-04-23T11:06:42.027Z,97659.38
2023-04-23T11:09:37.017Z,97648.38
2023-04-23T11:12:11.043Z,97642.44
2023-04-23T11:14:43.419Z,97638.72
2023-04-23T11:17:14.360Z,97645.41
2023-04-23T11:19:43.479Z,97647.19
2023-04-23T11:24:48.261Z,97647.25
2023-04-23T11:27:18.843Z,97651.41
2023-04-23T11:29:54.738Z,97640.03
2023-04-23T11:32:21.963Z,97654.84
2023-04-23T11:34:50.651Z,97650.97
2023-04-23T11:37:19.062Z,97640.63
2023-04-23T11:39:47.719Z,97636.81
2023-04-23T11:42:15.527Z,97630.00
2023-04-23T11:44:45.571Z,97637.31
2023-04-23T11:47:14.521Z,97639.09
2023-04-23T11:49:43.288Z,97625.78
2023-04-23T11:52:11.757Z,97627.84
2023-04-23T11:54:41.537Z,97627.41
2023-04-23T11:57:08.688Z,97624.00
2023-04-23T11:59:35.711Z,97618.69
2023-04-23T12:02:02.642Z,97614.38
2023-04-23T12:04:31.531Z,97616.91
2023-04-23T12:06:59.347Z,97612.97
2023-04-23T12:09:29.607Z,97623.53
2023-04-23T12:11:58.518Z,97612.81
2023-04-23T12:14:30.291Z,97624.00
2023-04-23T12:16:58.423Z,97605.78
2023-04-23T12:19:31.012Z,97601.03
2023-04-23T12:22:00.218Z,97601.09
2023-04-23T12:24:29.000Z,97595.28
2023-04-23T12:26:58.700Z,97602.69
2023-04-23T12:29:26.244Z,97598.44
2023-04-23T12:31:54.164Z,97593.06
2023-04-23T12:34:21.744Z,97591.63
2023-04-23T12:36:54.759Z,97586.63
2023-04-23T12:39:35.548Z,97579.44
2023-04-23T12:42:08.244Z,97581.16
2023-04-23T12:44:36.847Z,97572.41
2023-04-23T12:47:08.317Z,97572.59
2023-04-23T12:49:36.823Z,97579.66
2023-04-23T12:52:05.048Z,97579.00
2023-04-23T12:54:33.529Z,97574.91
2023-04-23T12:57:03.155Z,97574.56
2023-04-23T12:59:31.075Z,97567.16
2023-04-23T13:02:02.487Z,97563.88
2023-04-23T13:04:31.653Z,97558.91
2023-04-23T13:06:58.527Z,97550.53
2023-04-23T13:09:27.085Z,97558.53
2023-04-23T13:11:54.757Z,97546.41
2023-04-23T13:14:21.831Z,97552.09
2023-04-23T13:16:49.357Z,97545.69
2023-04-23T13:19:18.376Z,97544.13
2023-04-23T13:21:45.699Z,97544.16
2023-04-23T13:24:12.619Z,97534.69
2023-04-23T13:26:39.555Z,97539.19
2023-04-23T13:29:06.778Z,97540.78
2023-04-23T13:31:33.926Z,97529.97
2023-04-23T13:34:03.059Z,97528.91
2023-04-23T13:36:30.369Z,97528.66
2023-04-23T13:38:57.345Z,97526.22
2023-04-23T13:41:24.252Z,97520.16
2023-04-23T13:43:51.417Z,97513.59
2023-04-23T13:46:19.805Z,97504.91
2023-04-23T13:48:48.878Z,97503.44
2023-04-23T13:51:33.253Z,97506.13
2023-04-23T13:54:00.778Z,97497.09
2023-04-23T13:56:28.016Z,97505.75
2023-04-23T13:58:59.864Z,97498.00
2023-04-23T14:01:32.083Z,97488.94
2023-04-23T14:03:59.038Z,97493.31
2023-04-23T14:06:26.034Z,97482.72
2023-04-23T14:08:52.900Z,97481.47
2023-04-23T14:11:19.758Z,97485.00
2023-04-23T14:13:46.658Z,97489.62
2023-04-23T14:16:13.654Z,97479.59
2023-04-23T14:18:40.635Z,97476.25
2023-04-23T14:21:08.015Z,97480.69
2023-04-23T14:23:43.745Z,97462.78
2023-04-23T14:26:10.920Z,97463.84
2023-04-23T14:28:45.045Z,97459.19
2023-04-23T14:31:12.039Z,97460.09
2023-04-23T14:33:38.971Z,97456.88
2023-04-23T14:36:05.992Z,97461.59
2023-04-23T14:38:32.855Z,97457.97
2023-04-23T14:41:00.904Z,97446.53
2023-04-23T14:43:27.796Z,97458.25
2023-04-23T14:45:54.730Z,97466.00
2023-04-23T14:48:21.618Z,97452.97
2023-04-23T14:50:48.464Z,97463.97
2023-04-23T14:53:15.357Z,97455.47
2023-04-23T14:55:43.479Z,97444.84
2023-04-23T14:58:10.402Z,97458.13
2023-04-23T15:00:37.265Z,97450.97
2023-04-23T15:03:11.064Z,97455.72
2023-04-23T15:05:38.582Z,97451.53
2023-04-23T15:08:05.598Z,97446.94
2023-04-23T15:10:32.533Z,97435.78
2023-04-23T15:13:09.707Z,97435.47
2023-04-23T15:15:48.471Z,97442.50
2023-04-23T15:18:15.835Z,97448.28
2023-04-23T15:20:43.951Z,97435.53
2023-04-23T15:23:11.401Z,97434.91
2023-04-23T15:25:39.433Z,97429.56
2023-04-23T15:28:07.214Z,97428.28
2023-04-23T15:30:34.178Z,97430.34
2023-04-23T15:33:01.250Z,97439.13
2023-04-23T15:35:28.567Z,97429.81
2023-04-23T15:37:55.496Z,97433.91
2023-04-23T15:40:22.404Z,97422.88
2023-04-23T15:42:50.188Z,97424.69
2023-04-23T15:45:17.247Z,97423.47
2023-04-23T15:47:44.238Z,97428.69
2023-04-23T15:50:11.785Z,97432.25
2023-04-23T15:52:39.461Z,97422.13
2023-04-23T15:55:06.964Z,97422.69
2023-04-23T15:57:33.856Z,97423.38
2023-04-23T16:00:01.441Z,97413.50
2023-04-23T16:02:29.149Z,97416.94
2023-04-23T16:04:56.397Z,97413.31
2023-04-23T16:07:23.360Z,97417.91
2023-04-23T16:09:50.235Z,97409.19
2023-04-23T16:12:17.106Z,97408.87
2023-04-23T16:14:44.033Z,97401.84
2023-04-23T16:17:10.958Z,97405.50
2023-04-23T16:19:38.058Z,97407.34
2023-04-23T16:22:04.958Z,97401.91
2023-04-23T16:24:32.246Z,97404.44
2023-04-23T16:26:59.188Z,97402.63
2023-04-23T16:29:26.166Z,97395.50
2023-04-23T16:31:53.063Z,97405.09
2023-04-23T16:34:19.976Z,97395.81
2023-04-23T16:36:46.852Z,97394.75
2023-04-23T16:39:13.756Z,97393.47
2023-04-23T16:41:40.664Z,97391.47
2023-04-23T16:44:07.588Z,97389.53
2023-04-23T16:46:34.582Z,97395.53
2023-04-23T16:49:01.524Z,97397.34
2023-04-23T16:51:29.914Z,97385.94
2023-04-23T16:53:57.223Z,97396.91
2023-04-23T16:56:24.359Z,97387.97
2023-04-23T16:58:51.273Z,97394.69
2023-04-23T17:01:18.501Z,97386.78
2023-04-23T17:03:45.911Z,97393.22
2023-04-23T17:06:23.887Z,97398.16
2023-04-23T17:08:50.892Z,97390.28
2023-04-23T17:11:17.761Z,97394.72
2023-04-23T17:13:44.951Z,97396.00
2023-04-23T17:16:12.131Z,97389.75
2023-04-23T17:18:39.000Z,97391.56
2023-04-23T17:21:06.015Z,97390.41
2023-04-23T17:23:32.900Z,97384.66
2023-04-23T17:25:59.756Z,97383.00
2023-04-23T17:28:26.707Z,97385.03
2023-04-23T17:30:55.938Z,97384.59
2023-04-23T17:33:23.885Z,97377.09
2023-04-23T17:35:58.027Z,97372.69
2023-04-23T17:38:26.131Z,97381.72
2023-04-23T17:40:53.643Z,97374.06
2023-04-23T17:43:21.156Z,97378.16
2023-04-23T17:45:48.792Z,97385.25
2023-04-23T17:48:15.956Z,97385.59
2023-04-23T17:50:43.470Z,97388.41
2023-04-23T17:53:10.654Z,97383.22
2023-04-23T17:55:37.572Z,97383.41
2023-04-23T17:58:07.624Z,97390.81
2023-04-23T18:00:38.864Z,97389.84
2023-04-23T18:03:07.459Z,97377.66
2023-04-23T18:05:34.486Z,97377.94
2023-04-23T18:08:02.122Z,97388.44
2023-04-23T18:10:29.627Z,97385.44
2023-04-23T18:12:56.732Z,97380.69
2023-04-23T18:15:25.878Z,97396.06
2023-04-23T18:17:55.895Z,97392.38
2023-04-23T18:20:25.128Z,97389.31
2023-04-23T18:22:54.468Z,97386.75
2023-04-23T18:25:21.667Z,97395.47
2023-04-23T18:27:48.878Z,97388.13
2023-04-23T18:30:15.917Z,97389.06
2023-04-23T18:32:47.182Z,97392.91
2023-04-23T18:35:14.637Z,97391.50
2023-04-23T18:37:49.587Z,97398.09
2023-04-23T18:40:16.431Z,97394.44
2023-04-23T18:42:43.294Z,97391.94
2023-04-23T18:45:10.872Z,97398.81
2023-04-23T18:47:45.524Z,97402.09
2023-04-23T18:50:54.855Z,97399.25
2023-04-23T18:53:22.265Z,97401.59
2023-04-23T18:55:49.202Z,97400.41
2023-04-23T18:58:18.177Z,97399.22
2023-04-23T19:00:45.040Z,97396.59
2023-04-23T19:03:23.481Z,97401.16
2023-04-23T19:05:53.490Z,97389.88
2023-04-23T19:08:20.490Z,97390.59
2023-04-23T19:10:47.452Z,97394.28
2023-04-23T19:13:14.360Z,97398.47
2023-04-23T19:15:41.632Z,97394.44
2023-04-23T19:18:08.553Z,97399.97
2023-04-23T19:20:36.183Z,97401.25
2023-04-23T19:23:05.183Z,97396.22
2023-04-23T19:25:32.285Z,97392.75
2023-04-23T19:27:59.122Z,97395.25
2023-04-23T19:30:25.994Z,97400.13
2023-04-23T19:32:53.080Z,97397.16
2023-04-23T19:35:20.400Z,97392.00
2023-04-23T19:37:47.445Z,97401.00
2023-04-23T19:40:14.835Z,97393.53
2023-04-23T19:42:41.693Z,97396.97
2023-04-23T19:45:09.047Z,97394.06
2023-04-23T19:47:38.926Z,97397.28
2023-04-23T19:50:10.094Z,97384.78
2023-04-23T19:52:37.199Z,97382.09
2023-04-23T19:55:04.328Z,97384.63
2023-04-23T19:57:31.247Z,97386.00
2023-04-23T19:59:58.113Z,97389.06
2023-04-23T20:02:25.122Z,97390.88
2023-04-23T20:04:51.961Z,97389.84
2023-04-23T20:07:18.823Z,97392.88
2023-04-23T20:09:45.829Z,97383.69
2023-04-23T20:12:14.114Z,97384.63
2023-04-23T20:14:41.043Z,97394.97
2023-04-23T20:17:08.219Z,97388.53
2023-04-23T20:19:35.086Z,97382.94
2023-04-23T20:22:02.679Z,97379.31
2023-04-23T20:24:29.536Z,97374.94
2023-04-23T20:26:56.792Z,97386.97
2023-04-23T20:29:23.651Z,97378.03
2023-04-23T20:31:50.508Z,97375.09
2023-04-23T20:34:17.608Z,97375.00
2023-04-23T20:36:47.250Z,97365.06
2023-04-23T20:39:14.397Z,97368.16
2023-04-23T20:41:41.379Z,97372.72
2023-04-23T20:44:09.227Z,97365.03
2023-04-23T20:46:37.065Z,97359.91
2023-04-23T20:49:04.468Z,97361.44
2023-04-23T20:51:34.257Z,97348.53
2023-04-23T20:54:01.906Z,97355.25
2023-04-23T20:56:29.465Z,97347.34
2023-04-23T20:58:57.790Z,97345.16
2023-04-23T21:01:25.151Z,97350.41
2023-04-23T21:03:53.693Z,97341.09
2023-04-23T21:06:21.681Z,97345.78
2023-04-23T21:08:48.626Z,97338.50
2023-04-23T21:11:18.587Z,97335.25
2023-04-23T21:13:48.532Z,97340.31
2023-04-23T21:16:15.500Z,97335.06
2023-04-23T21:18:43.936Z,97329.41
2023-04-23T21:21:11.210Z,97324.50
2023-04-23T21:23:38.084Z,97320.06
2023-04-23T21:26:05.149Z,97315.25
2023-04-23T21:28:32.373Z,97320.28
2023-04-23T21:31:07.772Z,97310.28
2023-04-23T21:33:34.670Z,97297.75
2023-04-23T21:36:01.646Z,97299.38
2023-04-23T21:38:28.559Z,97299.09
2023-04-23T21:40:55.408Z,97307.53
2023-04-23T21:43:22.307Z,97298.28
2023-04-23T21:45:49.163Z,97298.72
2023-04-23T21:48:16.169Z,97298.25
2023-04-23T21:50:43.172Z,97300.78
2023-04-23T21:53:10.139Z,97305.56
2023-04-23T21:55:36.977Z,97303.41
2023-04-23T21:58:16.545Z,97303.69
2023-04-23T22:00:44.927Z,97291.81
2023-04-23T22:03:15.425Z,97303.28
2023-04-23T22:05:57.862Z,97295.53
2023-04-23T22:08:25.196Z,97294.69
2023-04-23T22:10:52.086Z,97291.16
2023-04-23T22:13:20.337Z,97293.50
2023-04-23T22:15:51.204Z,97291.50
2023-04-23T22:18:18.122Z,97287.84
2023-04-23T22:20:48.459Z,97289.09
2023-04-23T22:23:15.681Z,97283.66
2023-04-23T22:25:42.978Z,97284.84
2023-04-23T22:28:09.833Z,97283.69
2023-04-23T22:30:37.067Z,97280.81
2023-04-23T22:33:04.530Z,97288.03
2023-04-23T22:35:32.075Z,97287.13
2023-04-23T22:37:58.970Z,97272.28
2023-04-23T22:40:25.995Z,97276.53
2023-04-23T22:42:52.908Z,97271.84
2023-04-23T22:45:19.789Z,97271.19
2023-04-23T22:47:46.873Z,97273.37
2023-04-23T22:50:13.826Z,97266.50
2023-04-23T22:52:41.589Z,97270.22
2023-04-23T22:55:08.882Z,97265.66
2023-04-23T22:57:36.093Z,97260.28
2023-04-23T23:00:05.196Z,97254.59
2023-04-23T23:02:32.126Z,97253.91
2023-04-23T23:04:59.125Z,97249.19
2023-04-23T23:07:26.070Z,97242.97
2023-04-23T23:09:52.975Z,97235.94
2023-04-23T23:12:19.826Z,97231.38
2023-04-23T23:14:46.692Z,97227.91
2023-04-23T23:17:13.560Z,97226.03
2023-04-23T23:19:40.705Z,97226.16
2023-04-23T23:22:07.738Z,97214.53
2023-04-23T23:24:34.934Z,97216.03
2023-04-23T23:27:02.721Z,97205.16
2023-04-23T23:29:29.575Z,97208.28
2023-04-23T23:31:57.682Z,97205.72
2023-04-23T23:34:24.549Z,97204.03
2023-04-23T23:36:51.997Z,97211.50
2023-04-23T23:39:20.235Z,97205.94
2023-04-23T23:41:47.461Z,97205.53
2023-04-23T23:44:14.501Z,97196.50
2023-04-23T23:46:41.757Z,97198.16
2023-04-23T23:49:08.675Z,97190.88
2023-04-23T23:51:35.623Z,97193.66
2023-04-23T23:54:02.624Z,97194.00
2023-04-23T23:56:29.559Z,97192.06
2023-04-23T23:58:56.392Z,97191.25
